Time;durP1;ratioP1;P1;durP2;ratioP2;P2;SDS_P1;SDS_P2;PMS_P1;PMS_P2;Temp;Humidity;BMP_temperature;BMP_pressure;BME280_temperature;BME280_humidity;BME280_pressure;Samples;Min_cycle;Max_cycle;Signal;HPM_P1;HPM_P2
2022/03/25 00:01:43;;;;;;;116.57;56.50;;;1.50;99.90;;;;;;5096030;28;20470;-70
2022/03/25 00:04:09;;;;;;;122.20;57.95;;;1.50;99.90;;;;;;5095994;28;20030;-70
2022/03/25 00:06:35;;;;;;;121.00;57.58;;;1.50;99.90;;;;;;5095972;28;20396;-70
2022/03/25 00:09:01;;;;;;;130.43;59.28;;;1.40;99.90;;;;;;5095974;28;20036;-70
2022/03/25 00:11:26;;;;;;;129.07;59.13;;;1.40;99.90;;;;;;5077772;28;20028;-70
2022/03/25 00:13:53;;;;;;;136.60;64.70;;;1.40;99.90;;;;;;5095775;28;20540;-70
2022/03/25 00:16:18;;;;;;;125.70;57.47;;;1.30;99.90;;;;;;5096064;28;20016;-70
2022/03/25 00:18:44;;;;;;;131.00;61.10;;;1.30;99.90;;;;;;5095804;28;20107;-70
2022/03/25 00:21:10;;;;;;;128.73;60.60;;;1.30;99.90;;;;;;5095755;28;20046;-70
2022/03/25 00:23:35;;;;;;;128.00;60.30;;;1.30;99.90;;;;;;5095702;28;20023;-70
2022/03/25 00:26:01;;;;;;;133.70;61.55;;;1.30;99.90;;;;;;5095555;28;20392;-70
2022/03/25 00:28:27;;;;;;;127.53;61.42;;;1.30;99.90;;;;;;5095544;28;20027;-71
2022/03/25 00:30:54;;;;;;;126.88;59.25;;;1.30;99.90;;;;;;5095819;28;20464;-70
2022/03/25 00:33:20;;;;;;;126.82;58.92;;;1.30;99.90;;;;;;5095713;28;20080;-70
2022/03/25 00:35:45;;;;;;;125.53;57.75;;;1.20;99.90;;;;;;5095344;28;20032;-70
2022/03/25 00:38:12;;;;;;;122.07;57.50;;;1.20;99.90;;;;;;5095387;28;20016;-70
2022/03/25 00:40:37;;;;;;;122.85;60.28;;;1.20;99.90;;;;;;5095307;28;20019;-70
2022/03/25 00:43:03;;;;;;;126.93;59.83;;;1.10;99.90;;;;;;5095655;28;20028;-70
2022/03/25 00:45:29;;;;;;;120.03;56.50;;;1.10;99.90;;;;;;5095835;28;20392;-70
2022/03/25 00:47:59;;;;;;;132.95;62.35;;;1.10;99.90;;;;;;5095903;28;20059;-70
2022/03/25 00:50:25;;;;;;;141.77;62.47;;;1.10;99.90;;;;;;5095147;28;20028;-70
2022/03/25 00:52:51;;;;;;;131.30;61.45;;;1.20;99.90;;;;;;5095585;28;20024;-70
2022/03/25 00:55:17;;;;;;;130.73;59.47;;;1.30;99.90;;;;;;5095266;28;20031;-70
2022/03/25 00:57:42;;;;;;;129.15;57.17;;;1.20;99.90;;;;;;5095286;28;20028;-70
2022/03/25 01:00:11;;;;;;;128.35;58.83;;;1.20;99.90;;;;;;5095241;28;20024;-70
2022/03/25 01:02:38;;;;;;;125.93;56.13;;;1.10;99.90;;;;;;5095295;28;20016;-70
2022/03/25 01:05:04;;;;;;;131.85;58.00;;;1.10;99.90;;;;;;5094862;28;20046;-70
2022/03/25 01:07:30;;;;;;;140.80;63.08;;;1.10;99.90;;;;;;5094845;28;20020;-70
2022/03/25 01:09:55;;;;;;;140.52;65.30;;;1.10;99.90;;;;;;5094831;28;20016;-70
2022/03/25 01:12:21;;;;;;;122.43;59.30;;;1.10;99.90;;;;;;5093916;28;20032;-70
2022/03/25 01:14:47;;;;;;;134.52;60.13;;;1.00;99.90;;;;;;5094886;28;20026;-70
2022/03/25 01:17:14;;;;;;;132.63;59.42;;;1.00;99.90;;;;;;5095099;28;20099;-70
2022/03/25 01:19:40;;;;;;;137.45;62.10;;;0.90;99.90;;;;;;5094841;28;20476;-70
2022/03/25 01:22:07;;;;;;;140.02;64.13;;;0.90;99.90;;;;;;5094564;28;20111;-70
2022/03/25 01:24:33;;;;;;;136.82;63.22;;;0.90;99.90;;;;;;5094646;28;20023;-70
2022/03/25 01:26:59;;;;;;;137.50;62.67;;;1.00;99.90;;;;;;5094533;28;20449;-70
2022/03/25 01:29:25;;;;;;;134.32;62.75;;;1.00;99.90;;;;;;5094386;28;20071;-70
2022/03/25 01:31:51;;;;;;;133.25;60.97;;;0.90;99.90;;;;;;5094337;28;20048;-69
2022/03/25 01:34:17;;;;;;;134.20;63.63;;;0.90;99.90;;;;;;5094177;28;20070;-70
2022/03/25 01:36:42;;;;;;;144.13;63.42;;;1.00;99.90;;;;;;5094670;28;20031;-70
2022/03/25 01:39:08;;;;;;;122.85;59.78;;;1.00;99.90;;;;;;5094249;28;20056;-70
2022/03/25 01:41:34;;;;;;;135.98;63.05;;;0.90;99.90;;;;;;5094354;28;20174;-70
2022/03/25 01:44:01;;;;;;;133.77;62.22;;;1.00;99.90;;;;;;5094171;28;20024;-70
2022/03/25 01:46:27;;;;;;;139.02;62.50;;;1.00;99.90;;;;;;5094399;28;20487;-70
2022/03/25 01:48:53;;;;;;;135.90;61.15;;;1.00;99.90;;;;;;5094124;28;20494;-70
2022/03/25 01:51:29;;;;;;;121.97;57.47;;;1.00;99.90;;;;;;5094223;28;20050;-70
2022/03/25 01:54:00;;;;;;;121.07;55.10;;;0.90;99.90;;;;;;5094207;28;20404;-70
2022/03/25 01:56:26;;;;;;;117.97;53.63;;;0.80;99.90;;;;;;5094294;28;20099;-70
2022/03/25 01:58:51;;;;;;;123.10;56.17;;;0.80;99.90;;;;;;5093912;28;20495;-70
2022/03/25 02:01:17;;;;;;;137.88;59.03;;;0.70;99.90;;;;;;5093844;28;20021;-70
2022/03/25 02:03:46;;;;;;;122.65;55.55;;;0.70;99.90;;;;;;5094069;28;20020;-70
2022/03/25 02:06:12;;;;;;;121.45;55.50;;;0.70;99.90;;;;;;5093812;28;20024;-70
2022/03/25 02:08:37;;;;;;;115.68;54.20;;;0.70;99.90;;;;;;5093819;28;20472;-70
2022/03/25 02:11:04;;;;;;;114.18;53.20;;;0.70;99.90;;;;;;5093788;28;20020;-70
2022/03/25 02:13:30;;;;;;;114.50;53.28;;;0.60;99.90;;;;;;5093796;28;20035;-70
2022/03/25 02:15:55;;;;;;;117.53;53.67;;;0.60;99.90;;;;;;5093821;28;20487;-70
2022/03/25 02:18:21;;;;;;;122.47;55.65;;;0.60;99.90;;;;;;5093709;28;20491;-70
2022/03/25 02:20:49;;;;;;;130.77;57.78;;;0.60;99.90;;;;;;5093736;28;20074;-70
2022/03/25 02:23:15;;;;;;;136.13;61.88;;;0.60;99.90;;;;;;5093496;28;20040;-71
2022/03/25 02:25:42;;;;;;;127.78;57.45;;;0.60;99.90;;;;;;5093552;28;20103;-71
2022/03/25 02:28:08;;;;;;;134.60;59.42;;;0.50;99.90;;;;;;5093853;28;20472;-71
2022/03/25 02:30:36;;;;;;;127.05;55.35;;;0.50;99.90;;;;;;5093808;28;20063;-70
2022/03/25 02:33:04;;;;;;;124.18;56.03;;;0.50;99.90;;;;;;5093473;28;20476;-70
2022/03/25 02:35:47;;;;;;;142.10;59.92;;;0.50;99.90;;;;;;5093441;28;20062;-70
2022/03/25 02:38:16;;;;;;;119.28;53.45;;;0.60;99.90;;;;;;5093789;28;20039;-70
2022/03/25 02:40:42;;;;;;;99.97;50.50;;;0.60;99.90;;;;;;5093693;28;20038;-71
2022/03/25 02:43:08;;;;;;;104.45;52.47;;;0.60;99.90;;;;;;5093472;28;20020;-70
2022/03/25 02:45:34;;;;;;;127.90;55.35;;;0.60;99.90;;;;;;5093650;28;20024;-70
2022/03/25 02:48:02;;;;;;;114.88;53.70;;;0.60;99.90;;;;;;5093456;28;20045;-70
2022/03/25 02:50:29;;;;;;;122.70;54.25;;;0.60;99.90;;;;;;5093431;28;20036;-70
2022/03/25 02:52:56;;;;;;;129.73;60.40;;;0.60;99.90;;;;;;5093288;28;20024;-70
2022/03/25 02:55:21;;;;;;;121.78;53.75;;;0.60;99.90;;;;;;5093306;28;20035;-70
2022/03/25 02:57:47;;;;;;;126.53;54.83;;;0.60;99.90;;;;;;5093313;28;20036;-70
2022/03/25 03:00:13;;;;;;;122.47;54.00;;;0.60;99.90;;;;;;5093526;28;20047;-70
2022/03/25 03:02:38;;;;;;;116.88;56.15;;;0.60;99.90;;;;;;5093282;28;20024;-70
2022/03/25 03:05:07;;;;;;;117.55;53.42;;;0.50;99.90;;;;;;5093810;28;20456;-70
2022/03/25 03:07:35;;;;;;;106.20;52.50;;;0.50;99.90;;;;;;5094359;28;20024;-70
2022/03/25 03:10:03;;;;;;;113.47;50.80;;;0.50;99.90;;;;;;5094167;28;20529;-70
2022/03/25 03:12:28;;;;;;;121.88;52.97;;;0.40;99.90;;;;;;5093073;28;20024;-70
2022/03/25 03:14:55;;;;;;;112.32;52.30;;;0.30;99.90;;;;;;5093440;28;20024;-70
2022/03/25 03:17:21;;;;;;;108.13;52.53;;;0.40;99.90;;;;;;5093156;28;20094;-70
2022/03/25 03:19:47;;;;;;;102.00;49.17;;;0.30;99.90;;;;;;5093390;28;20035;-70
2022/03/25 03:22:12;;;;;;;107.07;51.10;;;0.30;99.90;;;;;;5093382;28;20039;-70
2022/03/25 03:24:38;;;;;;;98.10;49.40;;;0.30;99.90;;;;;;5093527;28;20047;-70
2022/03/25 03:27:04;;;;;;;95.72;46.25;;;0.20;99.90;;;;;;5093019;28;20039;-70
2022/03/25 03:29:29;;;;;;;123.07;51.20;;;0.20;99.90;;;;;;5093296;28;20426;-70
2022/03/25 03:31:55;;;;;;;109.90;50.83;;;0.20;99.90;;;;;;5092921;28;20044;-70
2022/03/25 03:34:20;;;;;;;103.20;49.13;;;0.20;99.90;;;;;;5092975;28;20388;-70
2022/03/25 03:36:46;;;;;;;104.07;49.42;;;0.20;99.90;;;;;;5097687;28;20103;-70
2022/03/25 03:39:11;;;;;;;120.03;53.75;;;0.20;99.90;;;;;;5096703;28;20024;-70
2022/03/25 03:41:38;;;;;;;118.82;53.55;;;0.30;99.90;;;;;;5096472;28;20074;-70
2022/03/25 03:44:04;;;;;;;107.80;49.65;;;0.30;99.90;;;;;;5096363;28;20028;-70
2022/03/25 03:46:30;;;;;;;119.45;52.03;;;0.40;99.90;;;;;;5096483;28;20030;-70
2022/03/25 03:48:56;;;;;;;110.75;51.58;;;0.40;99.90;;;;;;5096367;28;20107;-70
2022/03/25 03:51:21;;;;;;;106.25;52.53;;;0.40;99.90;;;;;;5096746;28;20035;-71
2022/03/25 03:53:47;;;;;;;120.05;50.55;;;0.50;99.90;;;;;;5096451;28;20024;-70
2022/03/25 03:56:12;;;;;;;110.75;51.15;;;0.40;99.90;;;;;;5096208;28;20089;-70
2022/03/25 03:58:38;;;;;;;117.43;53.28;;;0.50;99.90;;;;;;5096302;28;20016;-71
2022/03/25 04:01:04;;;;;;;109.82;51.40;;;0.50;99.90;;;;;;5096161;28;20020;-71
2022/03/25 04:03:30;;;;;;;108.35;50.92;;;0.50;99.90;;;;;;5096396;28;20117;-71
2022/03/25 04:05:57;;;;;;;107.47;50.97;;;0.50;99.90;;;;;;5096576;28;20452;-70
2022/03/25 04:08:23;;;;;;;133.68;56.22;;;0.50;99.90;;;;;;5096291;28;20108;-70
2022/03/25 04:10:49;;;;;;;111.07;50.72;;;0.50;99.90;;;;;;5096118;28;20027;-70
2022/03/25 04:13:14;;;;;;;96.75;49.53;;;0.50;99.90;;;;;;5096115;28;20491;-70
2022/03/25 04:15:40;;;;;;;109.13;50.22;;;0.50;99.90;;;;;;5095845;28;20118;-70
2022/03/25 04:18:05;;;;;;;108.25;51.00;;;0.40;99.90;;;;;;5096072;28;20028;-70
2022/03/25 04:20:31;;;;;;;102.45;47.47;;;0.40;99.90;;;;;;5095808;28;20035;-70
2022/03/25 04:22:57;;;;;;;98.53;48.70;;;0.30;99.90;;;;;;5095747;28;20476;-70
2022/03/25 04:25:22;;;;;;;96.85;46.28;;;0.30;99.90;;;;;;5096143;28;20066;-70
2022/03/25 04:27:53;;;;;;;92.18;46.63;;;0.20;99.90;;;;;;5095936;28;20060;-70
2022/03/25 04:30:27;;;;;;;101.78;47.03;;;0.20;99.90;;;;;;5095555;28;20476;-70
2022/03/25 04:32:54;;;;;;;101.28;49.15;;;0.10;99.90;;;;;;5096083;28;20064;-70
2022/03/25 04:35:21;;;;;;;102.18;49.65;;;0.10;99.90;;;;;;5095311;28;20399;-70
2022/03/25 04:37:47;;;;;;;111.13;51.55;;;0.10;99.90;;;;;;5095561;28;20020;-70
2022/03/25 04:40:18;;;;;;;118.05;52.75;;;0.10;99.90;;;;;;5095355;28;20089;-71
2022/03/25 04:42:44;;;;;;;102.80;49.47;;;0.10;99.90;;;;;;5095880;28;20026;-71
2022/03/25 04:45:10;;;;;;;104.07;50.67;;;0.10;99.90;;;;;;5095484;28;20050;-71
2022/03/25 04:47:36;;;;;;;103.93;49.30;;;0.10;99.90;;;;;;5094065;28;20016;-71
2022/03/25 04:50:02;;;;;;;108.05;49.10;;;0.10;99.90;;;;;;5095474;28;20065;-71
2022/03/25 04:52:28;;;;;;;105.72;48.13;;;0.10;99.90;;;;;;5094996;28;20023;-71
2022/03/25 04:54:54;;;;;;;106.43;49.42;;;0.10;99.90;;;;;;5094972;28;20024;-70
2022/03/25 04:57:19;;;;;;;122.13;50.92;;;0.10;99.90;;;;;;5095088;28;20012;-70
2022/03/25 04:59:45;;;;;;;102.25;49.72;;;0.10;99.90;;;;;;5095519;28;20024;-70
2022/03/25 05:02:11;;;;;;;109.70;50.88;;;0.10;99.90;;;;;;5094991;28;20383;-70
2022/03/25 05:04:36;;;;;;;108.40;49.97;;;0.10;99.90;;;;;;5094847;28;20039;-70
2022/03/25 05:07:02;;;;;;;103.07;51.53;;;0.10;99.90;;;;;;5094924;28;20038;-71
2022/03/25 05:09:28;;;;;;;106.55;50.95;;;0.10;99.90;;;;;;5094716;28;20031;-70
2022/03/25 05:11:54;;;;;;;107.13;54.05;;;0.10;99.90;;;;;;5094621;28;20064;-71
2022/03/25 05:14:20;;;;;;;117.60;53.45;;;0.10;99.90;;;;;;5094708;28;20016;-71
2022/03/25 05:16:52;;;;;;;135.32;62.55;;;0.10;99.90;;;;;;5094906;28;20526;-71
2022/03/25 05:19:21;;;;;;;127.28;59.13;;;0.30;99.90;;;;;;5094941;28;20047;-71
2022/03/25 05:21:46;;;;;;;142.73;63.47;;;0.40;99.90;;;;;;5094875;28;20031;-71
2022/03/25 05:24:12;;;;;;;146.38;64.35;;;0.50;99.90;;;;;;5094732;28;20024;-71
2022/03/25 05:26:38;;;;;;;156.45;65.82;;;0.60;99.90;;;;;;5094486;28;20028;-71
2022/03/25 05:29:04;;;;;;;143.82;66.75;;;0.70;99.90;;;;;;5076373;28;20506;-71
2022/03/25 05:31:30;;;;;;;130.52;63.08;;;0.70;99.90;;;;;;5094761;28;20047;-71
2022/03/25 05:33:56;;;;;;;131.40;60.20;;;0.70;99.90;;;;;;5094640;28;20020;-71
2022/03/25 05:36:21;;;;;;;135.55;63.20;;;0.80;99.90;;;;;;5094881;28;20024;-71
2022/03/25 05:38:47;;;;;;;144.07;66.95;;;0.80;99.90;;;;;;5094408;28;20028;-70
2022/03/25 05:41:12;;;;;;;150.15;71.47;;;0.90;99.90;;;;;;5094475;28;20028;-70
2022/03/25 05:43:38;;;;;;;151.30;68.22;;;1.00;99.90;;;;;;5094151;28;20476;-70
2022/03/25 05:46:03;;;;;;;152.63;69.72;;;1.10;99.90;;;;;;5094117;28;20020;-71
2022/03/25 05:48:29;;;;;;;146.55;70.15;;;1.20;99.90;;;;;;5094065;28;20020;-71
2022/03/25 05:50:55;;;;;;;148.38;68.70;;;1.40;99.90;;;;;;5094039;28;20502;-71
2022/03/25 05:53:21;;;;;;;143.20;68.85;;;1.40;99.90;;;;;;5093967;28;20028;-71
2022/03/25 05:55:46;;;;;;;151.52;67.93;;;1.40;99.90;;;;;;5094148;28;20024;-71
2022/03/25 05:58:12;;;;;;;154.70;69.13;;;1.40;99.90;;;;;;5093593;28;20053;-71
2022/03/25 06:00:38;;;;;;;156.45;68.85;;;1.40;99.90;;;;;;5093976;28;20016;-71
2022/03/25 06:03:04;;;;;;;152.93;70.63;;;1.50;99.90;;;;;;5093966;28;20024;-71
2022/03/25 06:05:29;;;;;;;148.57;69.63;;;1.60;99.90;;;;;;5093745;28;20020;-70
2022/03/25 06:07:55;;;;;;;152.07;67.65;;;1.60;99.90;;;;;;5093831;28;20040;-70
2022/03/25 06:10:21;;;;;;;142.13;68.13;;;1.70;99.90;;;;;;5093789;28;20016;-70
2022/03/25 06:12:47;;;;;;;154.20;69.43;;;1.80;99.90;;;;;;5093652;28;20024;-70
2022/03/25 06:15:13;;;;;;;162.48;74.90;;;1.90;99.90;;;;;;5093690;28;20499;-70
2022/03/25 06:17:49;;;;;;;167.80;74.18;;;2.00;99.90;;;;;;5093684;28;20059;-70
2022/03/25 06:20:20;;;;;;;158.95;76.00;;;2.20;99.90;;;;;;5093709;28;20044;-71
2022/03/25 06:22:46;;;;;;;185.70;81.18;;;2.30;99.90;;;;;;5093834;28;20028;-71
2022/03/25 06:25:13;;;;;;;180.15;80.93;;;2.50;99.90;;;;;;5093573;28;20031;-70
2022/03/25 06:27:56;;;;;;;175.05;79.82;;;2.70;99.90;;;;;;5093613;28;20031;-70
2022/03/25 06:30:24;;;;;;;179.00;76.80;;;2.80;99.90;;;;;;5075608;28;20058;-70
2022/03/25 06:32:50;;;;;;;165.23;74.68;;;2.90;99.90;;;;;;5093403;28;20020;-70
2022/03/25 06:35:17;;;;;;;159.98;76.57;;;3.00;99.90;;;;;;5093314;28;20127;-70
2022/03/25 06:37:43;;;;;;;182.15;80.47;;;3.10;99.90;;;;;;5094265;28;20096;-70
2022/03/25 06:40:10;;;;;;;190.52;81.28;;;3.30;99.90;;;;;;5093556;28;20103;-70
2022/03/25 06:42:38;;;;;;;178.30;81.80;;;3.50;99.90;;;;;;5093702;28;20090;-71
2022/03/25 06:45:05;;;;;;;187.80;83.32;;;3.70;99.90;;;;;;5093445;28;20050;-71
2022/03/25 06:47:30;;;;;;;194.48;84.90;;;3.90;99.90;;;;;;5093302;28;20110;-71
2022/03/25 06:49:56;;;;;;;181.07;84.55;;;4.10;99.90;;;;;;5093651;28;20067;-71
2022/03/25 06:52:22;;;;;;;172.63;84.05;;;4.20;99.90;;;;;;5093358;28;20110;-71
2022/03/25 06:54:48;;;;;;;190.32;84.88;;;4.30;99.90;;;;;;5093186;28;20070;-70
2022/03/25 06:57:14;;;;;;;167.93;81.38;;;4.50;99.90;;;;;;5093334;28;20024;-70
2022/03/25 06:59:41;;;;;;;182.50;84.00;;;4.70;99.90;;;;;;5093588;28;20067;-70
2022/03/25 07:02:11;;;;;;;180.32;83.20;;;4.80;99.90;;;;;;5093367;28;20020;-71
2022/03/25 07:04:38;;;;;;;177.10;84.05;;;5.00;99.90;;;;;;5093299;28;20024;-70
2022/03/25 07:07:06;;;;;;;182.30;84.53;;;5.10;99.90;;;;;;5093466;28;20032;-71
2022/03/25 07:09:32;;;;;;;170.70;82.50;;;5.40;99.90;;;;;;5093487;28;20058;-71
2022/03/25 07:11:59;;;;;;;177.25;86.75;;;5.50;99.90;;;;;;5096982;28;20055;-71
2022/03/25 07:14:26;;;;;;;184.20;87.68;;;5.70;99.90;;;;;;5097144;28;20028;-71
2022/03/25 07:16:51;;;;;;;181.35;86.00;;;6.00;99.90;;;;;;5097303;28;20016;-71
2022/03/25 07:19:17;;;;;;;188.05;87.10;;;6.20;99.90;;;;;;5096904;28;20464;-71
2022/03/25 07:21:43;;;;;;;168.75;85.97;;;6.40;99.90;;;;;;5096892;28;20039;-71
2022/03/25 07:24:09;;;;;;;160.68;84.53;;;6.60;99.90;;;;;;5097091;28;20110;-70
2022/03/25 07:26:37;;;;;;;159.23;79.95;;;6.70;99.90;;;;;;5096849;28;20050;-70
2022/03/25 07:29:03;;;;;;;145.82;74.93;;;6.90;99.90;;;;;;5097303;28;20423;-70
2022/03/25 07:31:28;;;;;;;138.70;73.60;;;7.10;99.90;;;;;;5096638;28;20024;-70
2022/03/25 07:33:55;;;;;;;130.63;72.90;;;7.30;99.90;;;;;;5096499;28;20448;-70
2022/03/25 07:36:21;;;;;;;139.05;73.93;;;7.50;99.90;;;;;;5097218;28;20028;-71
2022/03/25 07:38:46;;;;;;;135.77;73.28;;;7.60;99.90;;;;;;5096786;28;20070;-71
2022/03/25 07:41:12;;;;;;;138.98;68.22;;;7.80;99.90;;;;;;5096525;28;20196;-71
2022/03/25 07:43:39;;;;;;;111.28;61.92;;;7.90;99.90;;;;;;5096448;28;20028;-71
2022/03/25 07:46:05;;;;;;;111.72;57.35;;;8.10;99.90;;;;;;5096281;28;20031;-70
2022/03/25 07:48:31;;;;;;;106.13;55.65;;;8.30;99.90;;;;;;5096592;28;20056;-70
2022/03/25 07:50:56;;;;;;;103.70;57.75;;;8.50;99.90;;;;;;5096426;28;20031;-71
2022/03/25 07:53:22;;;;;;;102.25;56.58;;;8.80;99.90;;;;;;5096446;28;20081;-71
2022/03/25 07:55:50;;;;;;;105.55;58.55;;;9.00;99.90;;;;;;5096381;28;20063;-70
2022/03/25 07:58:19;;;;;;;109.25;56.78;;;9.00;99.90;;;;;;5096307;28;20017;-71
2022/03/25 08:00:46;;;;;;;103.38;58.03;;;9.10;99.90;;;;;;5096116;28;20077;-71
2022/03/25 08:03:12;;;;;;;108.30;60.30;;;9.20;99.90;;;;;;5096437;28;20408;-71
2022/03/25 08:05:39;;;;;;;104.07;57.58;;;9.30;99.90;;;;;;5095990;28;20470;-70
2022/03/25 08:08:04;;;;;;;98.22;56.33;;;9.30;99.90;;;;;;5096262;28;20032;-70
2022/03/25 08:10:31;;;;;;;97.47;54.60;;;9.40;99.90;;;;;;5096264;28;20032;-71
2022/03/25 08:12:58;;;;;;;105.40;55.75;;;9.40;99.90;;;;;;5095858;28;20028;-70
2022/03/25 08:15:25;;;;;;;97.85;54.55;;;9.40;99.90;;;;;;5095776;28;20055;-70
2022/03/25 08:17:56;;;;;;;100.65;52.97;;;9.50;99.90;;;;;;5096121;28;20062;-71
2022/03/25 08:20:23;;;;;;;92.13;51.70;;;9.50;99.90;;;;;;5095501;28;20074;-70
2022/03/25 08:22:49;;;;;;;96.50;51.17;;;9.60;99.90;;;;;;5095748;28;20389;-70
2022/03/25 08:28:01;;;;;;;93.28;51.53;;;9.90;99.90;;;;;;5096311;28;20434;-70
2022/03/25 08:30:28;;;;;;;99.38;52.33;;;10.20;99.90;;;;;;5095862;28;20024;-70
2022/03/25 08:32:54;;;;;;;94.53;51.58;;;10.30;99.90;;;;;;5095491;28;20024;-70
2022/03/25 08:35:20;;;;;;;85.38;47.95;;;10.40;99.90;;;;;;5077183;28;20039;-70
2022/03/25 08:37:45;;;;;;;90.75;46.83;;;10.50;99.90;;;;;;5095731;28;20096;-70
2022/03/25 08:40:11;;;;;;;89.07;49.90;;;10.60;99.90;;;;;;5095632;28;20024;-70
2022/03/25 08:42:37;;;;;;;89.63;47.80;;;10.70;99.90;;;;;;5095439;28;20088;-71
2022/03/25 08:45:03;;;;;;;101.50;49.65;;;10.80;99.90;;;;;;5095206;28;20024;-71
2022/03/25 08:47:28;;;;;;;92.45;47.42;;;10.90;99.90;;;;;;5095233;28;20035;-71
2022/03/25 08:49:54;;;;;;;101.82;50.50;;;10.90;99.90;;;;;;5076992;28;20050;-71
2022/03/25 08:52:21;;;;;;;100.20;54.42;;;11.00;99.90;;;;;;5095118;28;20030;-71
2022/03/25 08:54:47;;;;;;;103.85;54.92;;;11.00;99.90;;;;;;5095096;28;20024;-71
2022/03/25 08:57:13;;;;;;;97.45;52.65;;;11.20;99.90;;;;;;5095313;28;20361;-71
2022/03/25 08:59:38;;;;;;;95.45;53.42;;;11.40;99.90;;;;;;5095039;28;20077;-71
2022/03/25 09:02:04;;;;;;;103.13;56.00;;;11.40;99.90;;;;;;5094907;28;20028;-70
2022/03/25 09:04:30;;;;;;;96.57;54.33;;;11.50;99.90;;;;;;5076895;28;20028;-70
2022/03/25 09:06:56;;;;;;;105.38;57.03;;;11.50;99.90;;;;;;5095396;28;20024;-69
2022/03/25 09:09:21;;;;;;;109.07;55.30;;;11.50;99.90;;;;;;5095229;28;20472;-69
2022/03/25 09:11:48;;;;;;;102.22;55.53;;;11.70;99.90;;;;;;5076673;28;20120;-69
2022/03/25 09:14:14;;;;;;;105.07;58.08;;;11.90;99.90;;;;;;5094741;28;20016;-70
2022/03/25 09:16:40;;;;;;;106.53;58.65;;;12.10;99.90;;;;;;5094793;28;20016;-70
2022/03/25 09:19:06;;;;;;;123.32;56.35;;;12.20;99.90;;;;;;5094620;28;20149;-69
2022/03/25 09:21:31;;;;;;;102.22;55.60;;;12.20;99.90;;;;;;5094944;28;20471;-70
2022/03/25 09:23:57;;;;;;;100.90;58.13;;;12.30;99.90;;;;;;5094601;28;20530;-70
2022/03/25 09:26:25;;;;;;;114.90;58.08;;;12.50;99.90;;;;;;5094651;28;20089;-70
2022/03/25 09:28:51;;;;;;;107.07;57.38;;;12.60;99.90;;;;;;5094771;28;20019;-69
2022/03/25 09:31:16;;;;;;;111.03;58.60;;;12.70;99.90;;;;;;5094770;28;20111;-70
2022/03/25 09:33:42;;;;;;;113.03;61.53;;;12.80;99.90;;;;;;5093599;28;20115;-70
2022/03/25 09:36:08;;;;;;;112.93;63.08;;;13.00;99.90;;;;;;5118707;23;20106;-72
2022/03/25 09:38:34;;;;;;;114.60;63.75;;;13.00;99.90;;;;;;5113434;28;20019;-70
2022/03/25 09:41:03;;;;;;;109.57;61.72;;;12.90;99.90;;;;;;5114879;28;20051;-70
2022/03/25 09:43:29;;;;;;;116.70;62.05;;;13.00;99.90;;;;;;5114735;28;20020;-71
2022/03/25 09:45:54;;;;;;;111.53;59.10;;;13.20;99.90;;;;;;5114407;28;20035;-69
2022/03/25 09:48:20;;;;;;;108.72;57.22;;;13.40;99.90;;;;;;5114313;28;20024;-68
2022/03/25 09:50:45;;;;;;;116.38;59.45;;;13.60;99.90;;;;;;5114335;28;20019;-68
2022/03/25 09:53:11;;;;;;;106.15;57.50;;;13.50;99.90;;;;;;5114476;28;20054;-68
2022/03/25 09:55:42;;;;;;;118.57;62.70;;;13.60;99.90;;;;;;5114256;28;20041;-69
2022/03/25 09:58:09;;;;;;;119.80;62.17;;;13.80;99.90;;;;;;5114144;28;20383;-69
2022/03/25 10:00:35;;;;;;;122.95;63.40;;;13.80;99.90;;;;;;5114495;28;20019;-69
2022/03/25 10:03:00;;;;;;;119.55;65.18;;;14.10;99.90;;;;;;5114165;28;20492;-69
2022/03/25 10:05:26;;;;;;;111.18;60.35;;;14.40;99.90;;;;;;5114142;28;20102;-69
2022/03/25 10:07:56;;;;;;;118.82;61.63;;;14.30;99.90;;;;;;5114553;28;20102;-68
2022/03/25 10:10:24;;;;;;;114.00;62.88;;;14.50;99.90;;;;;;5114591;28;20023;-68
2022/03/25 10:12:59;;;;;;;105.40;56.45;;;14.50;99.90;;;;;;5114144;28;20024;-69
2022/03/25 10:15:27;;;;;;;109.00;59.40;;;14.70;99.90;;;;;;5114321;28;20016;-69
2022/03/25 10:18:01;;;;;;;110.55;61.47;;;14.90;99.90;;;;;;5113845;28;20027;-69
2022/03/25 10:20:31;;;;;;;112.72;59.55;;;14.90;99.90;;;;;;5114232;28;20019;-69
2022/03/25 10:23:02;;;;;;;110.10;58.45;;;14.80;99.90;;;;;;5113903;28;20028;-68
2022/03/25 10:25:39;;;;;;;106.57;60.38;;;14.80;99.90;;;;;;5113830;28;20023;-68
2022/03/25 10:28:17;;;;;;;95.10;51.72;;;14.90;99.90;;;;;;5113811;28;20413;-68
2022/03/25 10:30:47;;;;;;;101.38;51.00;;;15.20;99.90;;;;;;5113997;28;20103;-69
2022/03/25 10:33:30;;;;;;;110.50;51.42;;;15.10;99.90;;;;;;5113710;28;20023;-70
2022/03/25 10:35:59;;;;;;;100.18;53.17;;;15.20;99.90;;;;;;5114170;28;20016;-71
2022/03/25 10:38:25;;;;;;;103.00;53.53;;;15.20;99.90;;;;;;5113673;28;20031;-68
2022/03/25 10:40:57;;;;;;;100.05;53.47;;;15.40;99.90;;;;;;5113814;28;20464;-71
2022/03/25 10:43:24;;;;;;;94.75;54.17;;;15.40;99.90;;;;;;5113844;28;20038;-69
2022/03/25 10:45:50;;;;;;;104.45;52.25;;;15.40;99.90;;;;;;5117893;28;20031;-68
2022/03/25 10:48:22;;;;;;;88.18;48.33;;;15.60;99.90;;;;;;5117839;28;20024;-69
2022/03/25 10:50:55;;;;;;;95.75;48.55;;;15.40;99.90;;;;;;5118127;28;20051;-69
2022/03/25 10:53:26;;;;;;;84.43;43.03;;;15.60;99.90;;;;;;5118277;28;20115;-69
2022/03/25 10:55:56;;;;;;;80.97;39.78;;;15.70;99.90;;;;;;5118058;28;20066;-69
2022/03/25 10:58:22;;;;;;;93.95;47.78;;;15.80;99.90;;;;;;5117648;28;20019;-69
2022/03/25 11:00:49;;;;;;;103.88;47.13;;;15.80;99.90;;;;;;5117569;28;20023;-69
2022/03/25 11:03:15;;;;;;;81.63;47.35;;;15.90;99.90;;;;;;5117515;28;20031;-71
2022/03/25 11:05:42;;;;;;;92.32;46.63;;;15.80;99.90;;;;;;5117583;28;20030;-71
2022/03/25 11:08:09;;;;;;;86.30;46.53;;;15.80;99.90;;;;;;5117550;28;20049;-71
2022/03/25 11:10:35;;;;;;;78.78;43.17;;;16.10;99.90;;;;;;5117477;28;20031;-71
2022/03/25 11:13:03;;;;;;;84.22;46.22;;;16.10;99.90;;;;;;5117373;28;20463;-70
2022/03/25 11:15:30;;;;;;;94.00;45.45;;;16.10;99.90;;;;;;5117654;28;20375;-68
2022/03/25 11:17:56;;;;;;;85.68;45.55;;;16.20;99.90;;;;;;5117231;28;20011;-71
2022/03/25 11:20:25;;;;;;;101.57;52.75;;;16.30;99.90;;;;;;5117337;28;20060;-71
2022/03/25 11:23:12;;;;;;;93.53;48.10;;;16.20;99.90;;;;;;5117462;28;20039;-71
2022/03/25 11:25:45;;;;;;;105.93;51.08;;;16.20;99.90;;;;;;5117192;28;20058;-70
2022/03/25 11:28:16;;;;;;;104.88;53.25;;;16.30;99.90;;;;;;5117126;28;20027;-70
2022/03/25 11:30:41;;;;;;;108.72;55.42;;;16.40;99.90;;;;;;5117456;28;20026;-71
2022/03/25 11:33:08;;;;;;;106.80;53.10;;;16.50;99.90;;;;;;5117043;28;20375;-71
2022/03/25 11:35:34;;;;;;;107.20;56.08;;;16.50;99.90;;;;;;5117614;28;20012;-71
2022/03/25 11:38:26;;;;;;;106.07;57.53;;;16.70;99.90;;;;;;5116829;28;20027;-71
2022/03/25 11:40:52;;;;;;;112.03;57.50;;;16.80;99.90;;;;;;5115798;28;20032;-71
2022/03/25 11:43:21;;;;;;;116.72;62.33;;;16.50;99.90;;;;;;5117008;28;20026;-71
2022/03/25 11:46:06;;;;;;;111.45;62.65;;;16.70;99.90;;;;;;5116856;28;20053;-71
2022/03/25 11:48:42;;;;;;;110.32;61.85;;;17.00;99.90;;;;;;5116707;28;20487;-71
2022/03/25 11:51:26;;;;;;;118.15;61.78;;;17.20;99.90;;;;;;5117069;28;20024;-71
2022/03/25 11:53:51;;;;;;;125.90;65.78;;;17.10;99.90;;;;;;5116919;28;20035;-68
2022/03/25 11:56:17;;;;;;;119.72;63.47;;;17.00;99.90;;;;;;5115816;28;20356;-68
2022/03/25 11:58:55;;;;;;;137.60;66.53;;;17.00;99.90;;;;;;5117128;28;20157;-68
2022/03/25 12:01:21;;;;;;;132.90;68.05;;;17.30;99.90;;;;;;5116519;28;20097;-70
2022/03/25 12:03:49;;;;;;;129.95;70.20;;;17.70;99.90;;;;;;5116767;28;20411;-70
2022/03/25 12:06:19;;;;;;;135.60;70.97;;;17.90;99.90;;;;;;5116557;28;20049;-70
2022/03/25 12:09:15;;;;;;;145.35;73.93;;;17.80;99.90;;;;;;5116322;28;20371;-70
2022/03/25 12:12:00;;;;;;;140.35;74.93;;;17.90;99.90;;;;;;5116916;28;20030;-70
2022/03/25 12:14:31;;;;;;;148.85;76.25;;;18.30;99.90;;;;;;5116269;28;20019;-71
2022/03/25 12:17:07;;;;;;;150.18;79.47;;;18.00;99.90;;;;;;5116464;28;20023;-70
2022/03/25 12:19:41;;;;;;;152.55;78.68;;;17.70;99.90;;;;;;5116526;28;20102;-70
2022/03/25 12:22:19;;;;;;;155.60;78.68;;;18.00;99.90;;;;;;5116115;28;20031;-70
2022/03/25 12:24:55;;;;;;;154.45;78.28;;;18.20;99.90;;;;;;5116331;28;20468;-71
2022/03/25 12:27:21;;;;;;;150.13;79.15;;;18.20;99.90;;;;;;5116172;28;20026;-71
2022/03/25 12:29:50;;;;;;;158.68;84.18;;;18.00;99.90;;;;;;5116515;28;20100;-72